Time;durP1;ratioP1;P1;durP2;ratioP2;P2;SDS_P1;SDS_P2;PMS_P1;PMS_P2;Temp;Humidity;BMP_temperature;BMP_pressure;BME280_temperature;BME280_humidity;BME280_pressure;Samples;Min_cycle;Max_cycle;Signal;HPM_P1;HPM_P2
2021/10/28 00:14:22;;;;;;;2.97;1.63;;;;;;;20.87;47.87;101925.84;5072709;28;20097;-62
2021/10/28 00:16:51;;;;;;;3.50;1.67;;;;;;;20.87;47.90;101922.34;5072690;28;20415;-62
2021/10/28 00:19:18;;;;;;;3.13;1.40;;;;;;;20.86;47.81;101925.97;5071709;28;20048;-62
2021/10/28 00:21:44;;;;;;;3.58;1.50;;;;;;;20.83;47.87;101924.38;5072513;28;20432;-62
2021/10/28 00:24:11;;;;;;;3.55;1.52;;;;;;;20.82;47.83;101915.59;5072312;28;20448;-62
2021/10/28 00:26:39;;;;;;;2.83;1.33;;;;;;;20.79;47.89;101918.47;5071877;28;20024;-62
2021/10/28 00:29:08;;;;;;;3.38;1.70;;;;;;;20.79;47.94;101917.63;5071971;28;20041;-63
2021/10/28 00:31:36;;;;;;;3.38;1.40;;;;;;;20.79;47.57;101913.19;5071624;28;20187;-62
2021/10/28 00:34:02;;;;;;;3.83;1.65;;;;;;;20.76;47.87;101916.06;5071142;28;20032;-62
2021/10/28 00:36:28;;;;;;;3.45;1.58;;;;;;;20.75;47.85;101906.41;5072284;28;20373;-62
2021/10/28 00:38:54;;;;;;;3.88;1.60;;;;;;;20.74;47.72;101907.38;5072345;28;20026;-61
2021/10/28 00:41:25;;;;;;;3.40;1.48;;;;;;;20.72;47.76;101906.66;5071430;28;20036;-63
2021/10/28 00:43:56;;;;;;;2.92;1.50;;;;;;;20.71;47.70;101902.31;5072352;28;20041;-63
2021/10/28 00:46:28;;;;;;;3.05;1.27;;;;;;;20.69;47.85;101898.09;5071446;28;20016;-63
2021/10/28 00:48:54;;;;;;;3.38;1.40;;;;;;;20.70;47.87;101902.44;5072476;28;20044;-63
2021/10/28 00:51:22;;;;;;;2.45;1.30;;;;;;;20.69;47.74;101896.28;5071967;28;20056;-62
2021/10/28 00:53:49;;;;;;;3.08;1.30;;;;;;;20.69;47.62;101895.44;5071207;28;20071;-63
2021/10/28 00:56:15;;;;;;;3.72;1.48;;;;;;;20.68;47.65;101899.91;5071901;28;20059;-62
2021/10/28 00:58:41;;;;;;;3.67;1.50;;;;;;;20.65;47.81;101898.31;5071932;28;20103;-62
2021/10/28 01:01:06;;;;;;;2.92;1.38;;;;;;;20.64;47.88;101903.75;5071151;28;20124;-61
2021/10/28 01:03:34;;;;;;;2.72;1.42;;;;;;;20.62;47.68;101893.22;5072340;28;20103;-62
2021/10/28 01:06:01;;;;;;;2.88;1.35;;;;;;;20.62;47.72;101900.34;5072257;28;20044;-62
2021/10/28 01:08:27;;;;;;;2.97;1.40;;;;;;;20.60;47.63;101897.81;5071457;28;20024;-62
2021/10/28 01:10:54;;;;;;;2.90;1.15;;;;;;;20.59;47.58;101898.75;5071893;28;20094;-63
2021/10/28 01:13:22;;;;;;;3.03;1.60;;;;;;;20.57;47.72;101897.16;5071453;28;20107;-63
2021/10/28 01:15:49;;;;;;;3.72;1.50;;;;;;;20.54;47.69;101892.97;5071263;28;20138;-62
2021/10/28 01:18:16;;;;;;;3.25;1.40;;;;;;;20.54;47.71;101892.97;5071579;28;20036;-62
2021/10/28 01:20:51;;;;;;;3.20;1.42;;;;;;;20.52;47.68;101889.59;5071988;28;20087;-63
2021/10/28 01:23:20;;;;;;;3.72;1.55;;;;;;;20.52;47.76;101894.91;5071048;28;20569;-62
2021/10/28 01:25:52;;;;;;;3.15;1.42;;;;;;;20.51;47.80;101893.19;5072090;28;20048;-62
2021/10/28 01:28:18;;;;;;;3.95;1.55;;;;;;;20.50;47.60;101883.56;5071872;28;20032;-62
2021/10/28 01:30:52;;;;;;;4.05;1.60;;;;;;;20.49;47.53;101887.19;5071370;28;20093;-62
2021/10/28 01:33:19;;;;;;;3.53;1.67;;;;;;;20.48;47.60;101886.31;5071810;28;20104;-62
2021/10/28 01:35:45;;;;;;;3.97;1.70;;;;;;;20.46;47.72;101893.53;5071138;28;20434;-62
2021/10/28 01:38:14;;;;;;;3.35;1.25;;;;;;;20.46;47.49;101884.75;5071754;28;20078;-62
2021/10/28 01:40:41;;;;;;;3.00;1.40;;;;;;;20.44;47.81;101881.34;5071878;28;20027;-63
2021/10/28 01:43:13;;;;;;;2.90;1.50;;;;;;;20.43;47.49;101877.03;5072921;28;20040;-63
2021/10/28 01:45:39;;;;;;;3.63;1.70;;;;;;;20.42;47.55;101886.78;5075931;28;20025;-62
2021/10/28 01:48:05;;;;;;;3.10;1.35;;;;;;;20.40;47.69;101874.63;5075319;28;20054;-61
2021/10/28 01:50:33;;;;;;;2.97;1.30;;;;;;;20.40;47.70;101871.97;5074917;28;20095;-62
2021/10/28 01:52:58;;;;;;;3.58;1.60;;;;;;;20.39;47.53;101871.09;5074837;28;20555;-62
2021/10/28 01:55:24;;;;;;;3.22;1.63;;;;;;;20.38;47.49;101869.44;5075690;28;20020;-62
2021/10/28 01:57:49;;;;;;;4.55;1.50;;;;;;;20.38;47.59;101866.78;5074705;28;20067;-62
2021/10/28 02:00:17;;;;;;;3.63;1.60;;;;;;;20.37;47.44;101864.25;5075058;28;20463;-62
2021/10/28 02:02:46;;;;;;;3.53;1.35;;;;;;;20.37;47.30;101856.31;5075350;28;20056;-61
2021/10/28 02:05:12;;;;;;;3.70;1.50;;;;;;;20.36;47.51;101851.97;5073999;28;20429;-62
2021/10/28 02:07:38;;;;;;;3.58;1.30;;;;;;;20.35;47.35;101852.94;5075169;28;20459;-61
2021/10/28 02:10:06;;;;;;;2.72;1.30;;;;;;;20.34;47.53;101857.38;5075059;28;20090;-62
2021/10/28 02:12:35;;;;;;;3.55;1.40;;;;;;;20.32;47.46;101850.53;5074516;28;20396;-62
2021/10/28 02:15:02;;;;;;;3.78;1.60;;;;;;;20.30;47.44;101843.53;5074917;28;20032;-62
2021/10/28 02:17:27;;;;;;;3.38;1.50;;;;;;;20.29;47.56;101849.78;5075056;28;20036;-62
2021/10/28 02:20:01;;;;;;;3.75;1.40;;;;;;;20.28;47.55;101840.16;5074118;28;20090;-62
2021/10/28 02:22:27;;;;;;;3.25;1.40;;;;;;;20.29;47.63;101841.84;5074979;28;20097;-62
2021/10/28 02:24:52;;;;;;;3.78;1.60;;;;;;;20.28;47.58;101844.59;5074345;28;20037;-62
2021/10/28 02:27:18;;;;;;;4.13;1.70;;;;;;;20.27;47.37;101830.53;5074772;28;20383;-62
2021/10/28 02:29:43;;;;;;;3.40;2.25;;;;;;;20.27;47.30;101835.00;5074635;28;20288;-62
2021/10/28 02:32:09;;;;;;;3.17;1.50;;;;;;;20.26;47.37;101834.13;5073651;28;20066;-63
2021/10/28 02:34:37;;;;;;;4.20;1.40;;;;;;;20.25;47.25;101827.16;5074539;28;20032;-63
2021/10/28 02:37:08;;;;;;;2.75;1.30;;;;;;;20.24;47.40;101820.16;5074553;28;20021;-62
2021/10/28 02:39:33;;;;;;;3.28;1.48;;;;;;;20.23;47.46;101820.28;5073672;28;20394;-63
2021/10/28 02:42:02;;;;;;;3.20;1.38;;;;;;;20.22;47.33;101821.22;5074267;28;20025;-62
2021/10/28 02:44:28;;;;;;;4.50;1.52;;;;;;;20.22;47.41;101818.59;5074598;28;20483;-62
2021/10/28 02:46:53;;;;;;;3.08;1.38;;;;;;;20.22;47.50;101818.59;5073685;28;20467;-62
2021/10/28 02:49:21;;;;;;;2.87;1.33;;;;;;;20.20;47.29;101816.09;5074388;28;20059;-61
2021/10/28 02:51:47;;;;;;;4.13;1.58;;;;;;;20.19;47.36;101817.03;5075060;28;20339;-63
2021/10/28 02:54:17;;;;;;;2.63;1.30;;;;;;;20.18;47.28;101806.56;5072499;28;20028;-62
2021/10/28 02:56:46;;;;;;;3.33;1.40;;;;;;;20.18;47.24;101806.56;5074545;28;20111;-61
2021/10/28 02:59:15;;;;;;;2.78;1.50;;;;;;;20.16;47.45;101805.84;5074002;28;20052;-62
2021/10/28 03:01:47;;;;;;;4.18;1.60;;;;;;;20.15;47.46;101799.69;5073500;28;20105;-62
2021/10/28 03:04:17;;;;;;;3.25;1.60;;;;;;;20.14;47.34;101792.72;5073979;28;20063;-62
2021/10/28 03:06:44;;;;;;;2.95;1.60;;;;;;;20.14;47.13;101792.72;5074286;28;20063;-63
2021/10/28 03:09:13;;;;;;;3.80;1.50;;;;;;;20.14;47.37;101798.00;5073160;28;20036;-62
2021/10/28 03:11:40;;;;;;;3.35;1.50;;;;;;;20.14;47.30;101791.84;5073974;28;20034;-62
2021/10/28 03:14:11;;;;;;;3.20;1.50;;;;;;;20.14;47.19;101783.91;5072166;28;20032;-62
2021/10/28 03:16:53;;;;;;;2.92;1.40;;;;;;;20.11;47.24;101788.50;5074206;28;20131;-62
2021/10/28 03:19:28;;;;;;;3.22;1.30;;;;;;;20.10;47.22;101783.31;5073762;28;20102;-62
2021/10/28 03:27:22;;;;;;;3.97;1.63;;;;;;;20.08;47.28;101772.84;5073924;28;20040;-63
2021/10/28 03:29:50;;;;;;;2.42;1.25;;;;;;;20.08;47.25;101780.78;5072902;28;20016;-62
2021/10/28 03:32:18;;;;;;;2.72;1.48;;;;;;;20.08;47.09;101772.00;5073280;28;20028;-62
2021/10/28 03:34:44;;;;;;;2.80;1.42;;;;;;;20.06;47.23;101766.81;5073316;28;20103;-63
2021/10/28 03:37:18;;;;;;;2.67;1.40;;;;;;;20.06;47.36;101772.13;5072521;28;20036;-62
2021/10/28 03:58:51;;;;;;;3.00;1.42;;;;;;;20.01;47.19;101760.19;5072434;28;20157;-62
2021/10/28 04:06:45;;;;;;;4.55;1.30;;;;;;;19.98;46.97;101761.28;5073219;28;20050;-63
2021/10/28 04:31:05;;;;;;;3.40;1.58;;;;;;;19.93;46.84;101735.16;5072641;28;20051;-62
2021/10/28 04:33:33;;;;;;;3.10;1.55;;;;;;;19.93;47.00;101744.88;5071978;28;20463;-61
2021/10/28 04:35:58;;;;;;;4.00;1.58;;;;;;;19.92;46.84;101744.03;5072531;28;20413;-62
2021/10/28 04:38:24;;;;;;;4.13;1.40;;;;;;;19.90;46.69;101735.38;5071828;28;20063;-62
2021/10/28 04:40:49;;;;;;;3.08;1.50;;;;;;;19.91;46.99;101742.34;5072813;28;20319;-62
2021/10/28 04:43:14;;;;;;;3.40;1.42;;;;;;;19.91;46.46;101750.28;5072383;28;20037;-62
2021/10/28 04:45:40;;;;;;;2.65;1.35;;;;;;;19.90;46.93;101743.31;5071823;28;20060;-61
2021/10/28 04:48:09;;;;;;;2.53;1.37;;;;;;;19.91;46.91;101746.81;5072166;28;20460;-62
2021/10/28 04:50:35;;;;;;;3.15;1.30;;;;;;;19.90;46.65;101745.97;5072361;28;20644;-62
2021/10/28 04:53:00;;;;;;;3.13;1.40;;;;;;;19.89;46.73;101738.16;5071366;28;20044;-62
2021/10/28 04:55:26;;;;;;;3.47;1.48;;;;;;;19.88;46.79;101742.56;5072404;28;20756;-62
2021/10/28 04:57:51;;;;;;;2.85;1.63;;;;;;;19.89;46.96;101746.09;5072433;28;20024;-62
2021/10/28 05:00:16;;;;;;;3.80;1.50;;;;;;;19.89;46.81;101740.78;5071183;28;20027;-62
2021/10/28 05:02:42;;;;;;;3.00;1.38;;;;;;;19.88;46.76;101742.56;5072653;28;20039;-61
2021/10/28 05:05:07;;;;;;;3.28;1.40;;;;;;;19.88;46.82;101739.09;5072181;28;20112;-61
2021/10/28 05:07:32;;;;;;;3.45;1.52;;;;;;;19.88;46.81;101731.16;5071642;28;20161;-62
2021/10/28 05:09:57;;;;;;;3.08;1.30;;;;;;;19.87;46.69;101726.84;5072001;28;20035;-62
2021/10/28 05:12:23;;;;;;;3.43;1.30;;;;;;;19.86;46.62;101723.34;5072278;28;20103;-62
2021/10/28 05:14:48;;;;;;;3.03;1.50;;;;;;;19.87;46.48;101718.91;5071343;28;20277;-62
2021/10/28 05:17:13;;;;;;;2.78;1.30;;;;;;;19.85;46.86;101720.81;5071224;28;20025;-62
2021/10/28 05:19:39;;;;;;;4.32;1.50;;;;;;;19.84;46.87;101719.13;5072283;28;20038;-62
2021/10/28 05:22:06;;;;;;;3.10;1.45;;;;;;;19.85;46.76;101718.16;5071130;28;20025;-63
2021/10/28 05:24:32;;;;;;;2.78;1.35;;;;;;;19.90;46.98;101724.81;5072081;28;20074;-63
2021/10/28 05:26:57;;;;;;;3.70;1.70;;;;;;;19.96;46.15;101715.53;5071716;28;20044;-62
2021/10/28 05:29:23;;;;;;;4.60;1.70;;;;;;;20.07;46.83;101707.63;5071017;28;20490;-63
2021/10/28 05:31:48;;;;;;;3.05;1.30;;;;;;;20.24;46.70;101713.47;5072147;28;20078;-62
2021/10/28 05:34:13;;;;;;;3.42;1.60;;;;;;;20.36;46.71;101711.66;5071846;28;20064;-63
2021/10/28 05:36:39;;;;;;;3.72;1.55;;;;;;;20.44;46.55;101703.97;5071178;28;20480;-62
2021/10/28 05:39:08;;;;;;;2.87;1.30;;;;;;;20.51;46.58;101707.84;5071862;28;20107;-65
2021/10/28 05:41:33;;;;;;;2.78;1.20;;;;;;;20.57;46.54;101702.06;5071747;28;20295;-62
2021/10/28 05:44:02;;;;;;;2.88;1.15;;;;;;;20.63;46.56;101691.00;5071318;28;20371;-64
2021/10/28 05:46:28;;;;;;;3.13;1.30;;;;;;;20.71;46.35;101700.16;5071903;28;20055;-63
2021/10/28 05:48:53;;;;;;;4.30;1.60;;;;;;;20.76;46.39;101688.25;5071282;28;20115;-63
2021/10/28 05:51:18;;;;;;;2.53;1.20;;;;;;;20.82;46.30;101685.13;5071587;28;20493;-63
2021/10/28 05:53:47;;;;;;;4.35;1.30;;;;;;;20.87;46.34;101690.06;5071492;28;20287;-63
2021/10/28 05:56:13;;;;;;;2.65;1.27;;;;;;;20.92;46.10;101682.56;5070699;28;20083;-63
2021/10/28 05:58:38;;;;;;;2.88;1.40;;;;;;;20.95;45.91;101687.63;5071531;28;20590;-66
2021/10/28 06:01:04;;;;;;;3.63;1.50;;;;;;;20.99;46.00;101685.56;5071592;28;20520;-65
2021/10/28 06:03:30;;;;;;;2.00;0.80;;;;;;;20.99;46.21;101683.75;5071024;28;20265;-65
2021/10/28 06:05:59;;;;;;;2.47;1.20;;;;;;;20.99;46.21;101681.09;5071787;28;20035;-64
2021/10/28 06:08:24;;;;;;;2.65;1.25;;;;;;;21.02;46.26;101682.66;5071849;28;20024;-63
2021/10/28 06:10:50;;;;;;;3.63;1.70;;;;;;;21.05;45.43;101689.53;5070824;28;20040;-67
2021/10/28 06:13:15;;;;;;;2.85;1.40;;;;;;;21.07;45.94;101690.25;5071255;28;20491;-68
2021/10/28 06:15:41;;;;;;;2.60;1.30;;;;;;;21.10;45.74;101685.53;5071678;28;20054;-68
2021/10/28 06:20:40;;;;;;;;;;;;;;;21.16;45.92;101678.91;5072139;28;20044;-67
2021/10/28 06:23:06;;;;;;;2.73;1.10;;;;;;;21.11;46.09;101676.63;5071234;28;19974;-68
2021/10/28 06:25:32;;;;;;;2.35;1.30;;;;;;;21.06;46.55;101665.56;5070710;28;20273;-66
2021/10/28 06:27:57;;;;;;;2.60;1.20;;;;;;;21.03;46.26;101671.13;5070928;28;20021;-67
2021/10/28 06:30:25;;;;;;;2.80;1.27;;;;;;;21.04;45.76;101670.13;5073431;28;20029;-63
2021/10/28 06:33:09;;;;;;;4.50;1.60;;;;;;;21.08;45.96;101671.56;5073796;28;20327;-63
2021/10/28 06:35:39;;;;;;;3.20;1.50;;;;;;;21.13;46.17;101674.69;5075071;28;20043;-61
2021/10/28 06:38:05;;;;;;;3.28;1.35;;;;;;;21.17;46.20;101672.63;5073823;28;20047;-60
2021/10/28 06:40:30;;;;;;;3.00;1.30;;;;;;;21.17;46.52;101660.22;5075067;28;20029;-63
2021/10/28 06:42:56;;;;;;;3.13;1.30;;;;;;;21.17;46.44;101662.03;5075037;28;20141;-63
2021/10/28 06:45:21;;;;;;;4.05;1.80;;;;;;;21.21;46.08;101663.47;5074004;28;20028;-63
2021/10/28 06:47:47;;;;;;;3.40;1.60;;;;;;;21.22;44.78;101662.50;5074838;28;20029;-65
2021/10/28 06:50:15;;;;;;;5.65;2.28;;;;;;;21.20;44.74;101661.78;5074501;28;20024;-63
2021/10/28 06:52:51;;;;;;;6.20;2.10;;;;;;;21.18;45.43;101661.06;5074133;28;20064;-63
2021/10/28 06:55:42;;;;;;;4.10;1.75;;;;;;;21.21;45.61;101666.13;5074831;28;20028;-63
2021/10/28 07:03:35;;;;;;;3.78;1.60;;;;;;;21.16;46.37;101673.59;5074775;28;20086;-62
2021/10/28 07:06:09;;;;;;;5.13;1.40;;;;;;;21.13;46.60;101677.34;5073391;28;20028;-61
2021/10/28 07:08:41;;;;;;;4.55;1.38;;;;;;;21.14;46.49;101676.38;5074883;28;20175;-62
2021/10/28 07:11:10;;;;;;;4.25;1.30;;;;;;;21.14;46.79;101675.53;5074058;28;20090;-66
2021/10/28 07:13:38;;;;;;;5.10;1.60;;;;;;;21.22;46.42;101673.13;5073261;28;20020;-66
2021/10/28 07:19:31;;;;;;;5.00;1.55;;;;;;;21.37;45.99;101682.44;5051626;28;20033;-63
2021/10/28 07:22:15;;;;;;;4.90;1.50;;;;;;;21.40;45.96;101675.22;5072187;28;20048;-63
2021/10/28 07:24:57;;;;;;;6.93;1.70;;;;;;;21.43;45.69;101674.94;5074386;28;20059;-62
2021/10/28 07:32:43;;;;;;;4.68;1.75;;;;;;;21.45;45.99;101675.69;5073876;28;20111;-64
2021/10/28 07:35:27;;;;;;;3.75;1.60;;;;;;;21.41;46.35;101682.19;5072973;28;20116;-64
2021/10/28 08:05:40;;;;;;;4.13;1.60;;;;;;;21.42;46.48;101673.28;5052879;28;20052;-62
2021/10/28 08:14:10;;;;;;;3.40;1.38;;;;;;;21.46;46.68;101664.94;5053244;28;20044;-66
2021/10/28 08:29:45;;;;;;;4.93;1.52;;;;;;;21.51;46.64;101649.53;5052843;28;20074;-65
2021/10/28 08:32:11;;;;;;;4.40;1.80;;;;;;;21.48;46.74;101648.91;5052235;28;20090;-68
2021/10/28 08:34:39;;;;;;;7.10;1.67;;;;;;;21.42;46.90;101647.59;5053129;28;20536;-69
2021/10/28 08:37:11;;;;;;;3.70;1.50;;;;;;;21.35;47.29;101636.66;5052145;28;20060;-66
2021/10/28 08:39:37;;;;;;;7.75;1.98;;;;;;;21.34;47.34;101634.97;5052091;28;20052;-64
2021/10/28 08:42:08;;;;;;;6.70;1.60;;;;;;;21.36;47.18;101635.72;5053621;28;20036;-64
2021/10/28 08:44:38;;;;;;;6.63;1.58;;;;;;;21.43;47.19;101637.81;5052281;28;20025;-65
2021/10/28 08:47:04;;;;;;;4.65;2.00;;;;;;;21.46;46.87;101638.44;5052071;28;20104;-64
2021/10/28 08:49:37;;;;;;;4.88;1.52;;;;;;;21.51;47.04;101636.25;5052359;28;20077;-65
2021/10/28 09:19:34;;;;;;;5.32;1.55;;;;;;;21.45;47.09;101622.66;5072249;28;20071;-62
2021/10/28 09:25:20;;;;;;;6.32;1.60;;;;;;;21.52;47.36;101590.22;5071920;28;19923;-63
2021/10/28 09:30:58;;;;;;;5.90;2.28;;;;;;;21.53;46.61;101585.75;5072104;28;20430;-63
2021/10/28 09:33:53;;;;;;;6.07;2.00;;;;;;;21.47;46.83;101586.22;5071844;28;20476;-62
2021/10/28 09:45:08;;;;;;;7.32;1.77;;;;;;;21.59;46.74;101557.84;5074128;28;20035;-66
2021/10/28 09:50:15;;;;;;;5.77;1.73;;;;;;;21.63;46.56;101554.81;5073443;28;20471;-67
2021/10/28 09:52:53;;;;;;;4.18;1.73;;;;;;;21.63;46.59;101549.50;5072330;28;20135;-66
2021/10/28 09:58:25;;;;;;;9.80;2.28;;;;;;;21.47;46.79;101554.41;5071483;28;20086;-64
2021/10/28 10:00:51;;;;;;;4.53;1.95;;;;;;;21.53;46.64;101554.75;5075171;28;20048;-66
2021/10/28 10:03:28;;;;;;;6.25;2.00;;;;;;;21.58;46.88;101546.41;5075204;28;20021;-65
2021/10/28 10:06:03;;;;;;;5.95;2.00;;;;;;;21.62;46.42;101544.31;5077831;28;20028;-65
2021/10/28 10:08:32;;;;;;;7.30;1.90;;;;;;;21.67;46.62;101547.44;5077303;28;20036;-65
2021/10/28 10:10:58;;;;;;;3.83;1.70;;;;;;;21.71;46.36;101538.25;5077614;28;20048;-66
2021/10/28 10:13:28;;;;;;;5.03;1.95;;;;;;;21.76;46.40;101535.19;5077222;28;20066;-65
2021/10/28 10:16:04;;;;;;;4.85;1.70;;;;;;;21.78;46.45;101534.09;5077180;28;20024;-64
2021/10/28 10:18:35;;;;;;;4.03;1.67;;;;;;;21.80;46.12;101534.81;5078695;28;20029;-65
2021/10/28 10:21:07;;;;;;;4.40;1.63;;;;;;;21.81;46.34;101528.53;5076532;28;20028;-62
2021/10/28 10:23:58;;;;;;;3.53;1.75;;;;;;;21.76;46.24;101525.41;5074549;28;20036;-65
2021/10/28 10:26:58;;;;;;;4.43;1.67;;;;;;;21.68;45.76;101522.59;5074973;28;20225;-65
2021/10/28 11:16:00;;;;;;;11.90;10.32;;;;;;;21.89;46.61;101483.59;5074284;28;20083;-66
2021/10/28 11:26:56;;;;;;;10.55;9.07;;;;;;;21.91;46.92;101457.75;5074048;28;20047;-66
2021/10/28 12:20:15;;;;;;;6.85;5.28;;;;;;;21.80;46.86;101372.97;5072895;28;20115;-65
2021/10/28 12:23:31;;;;;;;6.43;4.68;;;;;;;21.80;46.77;101372.13;5072044;28;20044;-65
2021/10/28 12:46:04;;;;;;;5.85;3.83;;;;;;;21.94;45.89;101331.94;5072698;28;20031;-66
2021/10/28 12:49:04;;;;;;;5.82;4.28;;;;;;;21.99;45.84;101329.69;5074056;28;20024;-65
2021/10/28 12:52:04;;;;;;;5.20;4.13;;;;;;;22.06;45.51;101329.97;5073627;28;20055;-68
2021/10/28 13:34:56;;;;;;;4.60;3.10;;;;;;;22.33;44.78;101276.22;5071798;28;20035;-65
2021/10/28 13:50:18;;;;;;;4.97;2.88;;;;;;;22.79;43.93;101255.94;5078240;28;20051;-67
2021/10/28 14:26:01;;;;;;;3.78;2.13;;;;;;;22.38;44.91;101223.53;5075331;28;20134;-65
2021/10/28 14:58:37;;;;;;;5.93;2.37;;;;;;;22.14;45.03;101220.47;5075449;28;20499;-66
2021/10/28 15:27:39;;;;;;;5.03;2.20;;;;;;;21.86;46.42;101209.75;5073775;28;20059;-66
2021/10/28 15:34:39;;;;;;;4.47;2.03;;;;;;;21.69;47.21;101192.72;5073463;28;20067;-65
2021/10/28 15:53:21;;;;;;;4.93;1.50;;;;;;;21.82;47.20;101182.63;5073274;28;20056;-63
2021/10/28 15:59:20;;;;;;;5.32;1.65;;;;;;;21.84;47.49;101182.50;5073741;28;20463;-63
2021/10/28 16:23:08;;;;;;;8.35;3.83;;;;;;;21.53;48.94;101158.78;5072179;28;20447;-67
2021/10/28 16:25:33;;;;;;;6.95;3.83;;;;;;;21.56;48.98;101159.34;5072999;28;20044;-64
2021/10/28 16:27:59;;;;;;;5.93;3.37;;;;;;;21.67;49.04;101160.19;5072531;28;20020;-62
2021/10/28 16:30:24;;;;;;;5.90;3.10;;;;;;;21.74;48.37;101161.28;5072213;28;20293;-63
2021/10/28 16:32:49;;;;;;;7.78;3.33;;;;;;;21.77;48.49;101154.88;5073190;28;20033;-65
2021/10/28 16:35:15;;;;;;;6.93;3.20;;;;;;;21.77;48.59;101150.41;5072528;28;20036;-63
2021/10/28 16:37:40;;;;;;;6.53;3.03;;;;;;;21.78;48.12;101149.44;5072200;28;20020;-64
2021/10/28 16:40:07;;;;;;;8.15;3.28;;;;;;;21.83;48.46;101141.88;5072547;28;20031;-64
2021/10/28 16:42:33;;;;;;;6.50;2.90;;;;;;;21.87;48.06;101143.28;5072840;28;20024;-64
2021/10/28 16:45:02;;;;;;;6.43;2.90;;;;;;;21.93;48.12;101141.84;5071965;28;20498;-64
2021/10/28 16:47:30;;;;;;;4.95;2.67;;;;;;;21.97;47.97;101143.25;5072839;28;20166;-63
2021/10/28 16:49:55;;;;;;;6.10;2.67;;;;;;;22.00;47.81;101140.31;5071837;28;20036;-64
2021/10/28 16:52:20;;;;;;;5.00;2.35;;;;;;;22.02;48.01;101146.31;5072013;28;20051;-65
2021/10/28 16:54:46;;;;;;;4.93;2.60;;;;;;;21.99;48.14;101146.59;5072265;28;20119;-63
2021/10/28 16:57:11;;;;;;;6.95;2.63;;;;;;;21.89;48.73;101138.66;5071453;28;20094;-63
2021/10/28 16:59:36;;;;;;;5.00;2.37;;;;;;;21.83;48.73;101139.22;5072515;28;20025;-62
2021/10/28 17:02:02;;;;;;;4.90;2.38;;;;;;;21.78;48.93;101144.13;5071998;28;20752;-61
2021/10/28 17:04:29;;;;;;;5.72;2.33;;;;;;;21.73;49.19;101141.06;5071473;28;20482;-62
2021/10/28 17:06:55;;;;;;;4.75;2.38;;;;;;;21.71;49.05;101135.91;5072389;28;20171;-63
2021/10/28 17:09:20;;;;;;;5.63;2.50;;;;;;;21.69;49.25;101135.19;5071852;28;20048;-62
2021/10/28 17:11:46;;;;;;;5.88;2.60;;;;;;;21.67;49.49;101136.31;5071696;28;20368;-63
2021/10/28 17:14:14;;;;;;;5.93;2.10;;;;;;;21.65;49.86;101135.59;5070957;28;20070;-62
2021/10/28 17:16:44;;;;;;;4.68;1.90;;;;;;;21.63;49.84;101130.44;5072102;28;20024;-63
2021/10/28 17:19:10;;;;;;;4.30;1.90;;;;;;;21.61;49.72;101124.44;5071228;28;20029;-63
2021/10/28 17:21:35;;;;;;;4.43;1.85;;;;;;;21.61;49.86;101131.56;5072089;28;20020;-64
2021/10/28 17:24:03;;;;;;;4.78;1.90;;;;;;;21.62;49.82;101133.22;5071647;28;20468;-63
2021/10/28 17:26:31;;;;;;;5.38;1.77;;;;;;;21.61;49.87;101126.28;5071504;28;20027;-63
2021/10/28 17:29:01;;;;;;;4.63;1.90;;;;;;;21.58;49.74;101127.38;5071946;28;20452;-63
2021/10/28 17:31:32;;;;;;;4.82;2.35;;;;;;;21.58;49.72;101130.03;5072117;28;20372;-64
2021/10/28 17:33:58;;;;;;;4.03;1.85;;;;;;;21.58;50.26;101132.69;5070925;28;20436;-63
2021/10/28 17:36:26;;;;;;;4.20;1.80;;;;;;;21.62;49.96;101125.28;5071965;28;20396;-67
2021/10/28 17:38:51;;;;;;;4.75;1.92;;;;;;;21.63;50.08;101132.25;5072001;28;20465;-67
2021/10/28 17:41:18;;;;;;;5.13;2.10;;;;;;;21.65;49.69;101128.50;5071060;28;20150;-68
2021/10/28 17:43:46;;;;;;;6.43;1.95;;;;;;;21.66;49.49;101129.34;5072039;28;20276;-67
2021/10/28 17:46:13;;;;;;;6.15;1.75;;;;;;;21.70;49.56;101130.75;5070869;28;20039;-68
2021/10/28 17:48:38;;;;;;;4.32;1.83;;;;;;;21.73;49.48;101125.16;5071898;28;20044;-68
2021/10/28 17:51:03;;;;;;;5.72;1.98;;;;;;;21.72;49.55;101121.63;5071616;28;20017;-67
2021/10/28 17:53:29;;;;;;;5.50;1.98;;;;;;;21.73;49.46;101127.81;5071087;28;20535;-67
2021/10/28 17:55:54;;;;;;;4.13;1.70;;;;;;;21.72;49.44;101120.81;5071749;28;20046;-67
2021/10/28 17:58:20;;;;;;;4.15;1.85;;;;;;;21.71;49.46;101117.34;5071747;28;20060;-68
2021/10/28 18:00:45;;;;;;;4.30;1.77;;;;;;;21.69;49.75;101113.97;5071348;28;20052;-69
2021/10/28 18:03:11;;;;;;;4.43;1.60;;;;;;;21.70;49.56;101115.66;5071878;28;20028;-69
2021/10/28 18:05:39;;;;;;;3.97;1.60;;;;;;;21.72;49.77;101116.34;5071850;28;20029;-69
2021/10/28 18:08:09;;;;;;;3.92;1.77;;;;;;;21.78;49.39;101116.75;5071341;28;20070;-68
2021/10/28 18:10:35;;;;;;;5.38;1.95;;;;;;;21.86;49.16;101122.19;5072387;28;20044;-70
2021/10/28 18:13:01;;;;;;;5.15;1.80;;;;;;;21.96;49.05;101116.88;5071803;28;20017;-69
2021/10/28 18:15:27;;;;;;;4.15;2.00;;;;;;;22.05;48.52;101118.66;5070898;28;20067;-69
2021/10/28 18:17:52;;;;;;;4.13;1.90;;;;;;;22.13;48.15;101115.25;5072059;28;20104;-67
2021/10/28 18:20:18;;;;;;;3.20;1.42;;;;;;;22.20;48.13;101111.88;5071509;28;20369;-68
2021/10/28 18:22:47;;;;;;;3.65;1.50;;;;;;;22.26;47.91;101115.78;5071370;28;20037;-69
2021/10/28 18:25:15;;;;;;;5.38;1.80;;;;;;;22.28;47.82;101119.13;5073363;28;20056;-66
2021/10/28 18:27:43;;;;;;;4.18;1.70;;;;;;;22.24;48.18;101109.81;5075398;28;20372;-69
2021/10/28 18:30:16;;;;;;;4.88;1.92;;;;;;;22.15;48.57;101108.00;5074176;28;20020;-70
2021/10/28 18:32:42;;;;;;;4.63;1.95;;;;;;;22.07;48.57;101114.88;5075131;28;20032;-69
2021/10/28 18:35:11;;;;;;;4.88;1.60;;;;;;;22.01;48.64;101112.78;5074673;28;20043;-69
2021/10/28 18:37:36;;;;;;;3.33;1.40;;;;;;;22.00;48.83;101103.16;5074491;28;20048;-68
2021/10/28 18:40:06;;;;;;;3.90;1.80;;;;;;;22.02;48.63;101111.81;5074679;28;20021;-70
2021/10/28 18:42:32;;;;;;;3.40;1.50;;;;;;;22.01;48.48;101104.00;5074438;28;20040;-66
2021/10/28 18:44:57;;;;;;;3.45;1.65;;;;;;;22.04;48.93;101111.66;5075058;28;20062;-65
2021/10/28 18:47:29;;;;;;;4.40;1.53;;;;;;;22.08;48.48;101105.09;5075165;28;20405;-66
2021/10/28 18:49:54;;;;;;;4.72;2.00;;;;;;;22.13;48.24;101102.00;5074327;28;20754;-66
2021/10/28 18:52:21;;;;;;;4.47;1.80;;;;;;;22.20;48.42;101103.09;5074949;28;20037;-66
2021/10/28 18:54:47;;;;;;;3.83;1.40;;;;;;;22.24;48.20;101104.50;5074902;28;20039;-65
2021/10/28 18:57:13;;;;;;;5.03;1.65;;;;;;;22.26;48.00;101103.34;5073394;28;20544;-66
2021/10/28 18:59:44;;;;;;;5.43;1.52;;;;;;;22.27;47.97;101098.88;5074757;28;20059;-66
2021/10/28 19:02:09;;;;;;;4.80;1.70;;;;;;;22.25;48.05;101091.03;5074210;28;20097;-66
2021/10/28 19:04:36;;;;;;;4.03;1.23;;;;;;;22.26;48.12;101095.38;5073752;28;20028;-65
2021/10/28 19:07:06;;;;;;;4.53;1.52;;;;;;;22.22;47.95;101095.81;5074122;28;20108;-63
2021/10/28 19:09:31;;;;;;;3.58;1.60;;;;;;;22.17;48.23;101092.78;5074813;28;20020;-60
2021/10/28 19:11:58;;;;;;;5.22;1.70;;;;;;;22.13;48.46;101089.56;5073308;28;20360;-64
2021/10/28 19:14:27;;;;;;;4.00;1.30;;;;;;;22.07;48.49;101090.16;5074222;28;20032;-65
2021/10/28 19:16:59;;;;;;;3.30;1.65;;;;;;;22.00;48.61;101091.69;5074568;28;20025;-66
2021/10/28 19:19:24;;;;;;;3.58;1.50;;;;;;;21.92;49.12;101095.06;5073897;28;20022;-65
2021/10/28 19:21:50;;;;;;;3.72;1.45;;;;;;;21.87;49.53;101084.06;5074317;28;20039;-65
2021/10/28 19:24:15;;;;;;;5.30;1.90;;;;;;;21.85;49.63;101084.19;5073876;28;20020;-64
2021/10/28 19:26:41;;;;;;;4.60;1.60;;;;;;;21.87;49.73;101074.31;5073615;28;20152;-63
2021/10/28 19:29:08;;;;;;;4.30;1.45;;;;;;;21.89;49.74;101077.63;5073949;28;20036;-64
2021/10/28 19:31:40;;;;;;;4.65;1.98;;;;;;;21.95;49.77;101073.56;5073425;28;20040;-64
2021/10/28 19:34:06;;;;;;;3.63;1.48;;;;;;;22.02;49.40;101074.66;5073631;28;20024;-64
2021/10/28 19:36:37;;;;;;;4.40;2.08;;;;;;;22.00;49.75;101071.31;5073286;28;20054;-64
2021/10/28 19:47:27;;;;;;;5.13;1.70;;;;;;;22.22;49.52;101050.69;5072950;28;20032;-64
2021/10/28 19:49:52;;;;;;;6.30;1.50;;;;;;;22.25;49.17;101056.53;5073437;28;20044;-65